createdAt,value
2022-10-23T00:01:14.334Z,95747.66
2022-10-23T00:03:42.243Z,95751.09
2022-10-23T00:06:10.687Z,95744.81
2022-10-23T00:08:40.277Z,95747.06
2022-10-23T00:11:09.512Z,95741.13
2022-10-23T00:13:37.248Z,95741.53
2022-10-23T00:16:06.189Z,95735.22
2022-10-23T00:18:34.334Z,95736.41
2022-10-23T00:21:02.990Z,95731.31
2022-10-23T00:23:30.618Z,95727.09
2022-10-23T00:26:00.212Z,95729.53
2022-10-23T00:28:28.098Z,95727.09
2022-10-23T00:30:55.803Z,95729.31
2022-10-23T00:33:23.516Z,95727.03
2022-10-23T00:35:51.846Z,95727.03
2022-10-23T00:38:19.491Z,95728.06
2022-10-23T00:43:24.664Z,95733.16
2022-10-23T00:45:53.018Z,95729.06
2022-10-23T00:48:21.813Z,95732.72
2022-10-23T00:50:50.648Z,95741.06
2022-10-23T00:53:20.181Z,95731.84
2022-10-23T00:55:51.632Z,95737.13
2022-10-23T00:58:21.475Z,95729.78
2022-10-23T01:00:55.073Z,95728.97
2022-10-23T01:03:26.219Z,95725.69
2022-10-23T01:06:01.370Z,95726.97
2022-10-23T01:08:33.102Z,95733.94
2022-10-23T01:11:07.289Z,95728.97
2022-10-23T01:13:44.235Z,95728.34
2022-10-23T01:16:20.190Z,95727.38
2022-10-23T01:18:53.357Z,95710.56
2022-10-23T01:21:28.612Z,95713.91
2022-10-23T01:24:11.137Z,95710.81
2022-10-23T01:26:56.260Z,95697.47
2022-10-23T01:29:33.623Z,95697.81
2022-10-23T01:32:08.281Z,95689.91
2022-10-23T01:34:42.275Z,95686.09
2022-10-23T01:37:14.387Z,95702.50
2022-10-23T01:39:47.966Z,95693.50
2022-10-23T01:42:20.827Z,95697.81
2022-10-23T01:44:54.170Z,95694.31
2022-10-23T01:47:28.364Z,95684.50
2022-10-23T01:50:03.378Z,95679.59
2022-10-23T01:52:31.774Z,95691.31
2022-10-23T01:55:01.980Z,95703.47
2022-10-23T01:57:34.420Z,95697.56
2022-10-23T02:00:08.235Z,95696.28
2022-10-23T02:02:53.669Z,95681.53
2022-10-23T02:05:29.225Z,95665.91
2022-10-23T02:07:59.254Z,95663.06
2022-10-23T02:10:36.070Z,95672.06
2022-10-23T02:13:08.303Z,95664.69
2022-10-23T02:15:40.974Z,95676.06
2022-10-23T02:18:16.342Z,95665.59
2022-10-23T02:20:48.244Z,95660.03
2022-10-23T02:23:22.359Z,95656.44
2022-10-23T02:25:57.139Z,95653.31
2022-10-23T02:28:28.885Z,95647.59
2022-10-23T02:31:06.259Z,95650.59
2022-10-23T02:33:35.621Z,95641.69
2022-10-23T02:36:04.264Z,95644.97
2022-10-23T02:38:35.957Z,95644.59
2022-10-23T02:41:18.869Z,95647.81
2022-10-23T02:43:57.317Z,95652.50
2022-10-23T02:46:32.446Z,95648.34
2022-10-23T02:49:10.895Z,95641.81
2022-10-23T02:51:49.224Z,95652.72
2022-10-23T02:54:32.859Z,95651.88
2022-10-23T02:57:07.000Z,95642.53
2022-10-23T02:59:41.759Z,95623.78
2022-10-23T03:02:22.824Z,95627.69
2022-10-23T03:04:53.603Z,95625.44
2022-10-23T03:07:22.369Z,95629.44
2022-10-23T03:09:50.061Z,95633.47
2022-10-23T03:12:18.397Z,95627.38
2022-10-23T03:14:46.063Z,95631.81
2022-10-23T03:17:15.873Z,95637.16
2022-10-23T03:19:47.327Z,95630.06
2022-10-23T03:22:15.233Z,95636.34
2022-10-23T03:24:43.449Z,95632.97
2022-10-23T03:27:12.048Z,95636.25
2022-10-23T03:29:40.199Z,95639.88
2022-10-23T03:32:08.073Z,95636.44
2022-10-23T03:34:37.380Z,95635.34
2022-10-23T03:37:06.253Z,95628.31
2022-10-23T03:39:33.898Z,95627.94
2022-10-23T03:42:02.108Z,95620.50
2022-10-23T03:44:31.360Z,95619.94
2022-10-23T03:47:00.024Z,95605.56
2022-10-23T03:49:28.113Z,95619.19
2022-10-23T03:52:05.513Z,95624.09
2022-10-23T03:54:33.823Z,95615.97
2022-10-23T03:57:02.204Z,95619.09
2022-10-23T03:59:30.316Z,95611.53
2022-10-23T04:01:59.752Z,95607.38
2022-10-23T04:04:28.062Z,95600.72
2022-10-23T04:06:56.129Z,95610.34
2022-10-23T04:09:25.714Z,95606.25
2022-10-23T04:11:53.722Z,95611.97
2022-10-23T04:14:21.356Z,95604.88
2022-10-23T04:16:49.309Z,95617.69
2022-10-23T04:19:17.479Z,95606.78
2022-10-23T04:21:45.353Z,95608.22
2022-10-23T04:24:13.094Z,95598.09
2022-10-23T04:26:42.915Z,95603.63
2022-10-23T04:29:11.761Z,95603.63
2022-10-23T04:31:40.107Z,95600.78
2022-10-23T04:34:07.907Z,95606.91
2022-10-23T04:36:37.221Z,95596.31
2022-10-23T04:39:10.966Z,95601.22
2022-10-23T04:41:39.597Z,95604.53
2022-10-23T04:44:09.167Z,95594.44
2022-10-23T04:46:40.138Z,95592.91
2022-10-23T04:49:07.873Z,95593.38
2022-10-23T04:51:48.519Z,95594.59
2022-10-23T04:54:43.178Z,95586.78
2022-10-23T04:57:23.478Z,95591.78
2022-10-23T05:00:15.917Z,95594.91
2022-10-23T05:02:49.199Z,95588.19
2022-10-23T05:05:18.923Z,95579.28
2022-10-23T05:07:55.269Z,95578.47
2022-10-23T05:10:29.132Z,95572.38
2022-10-23T05:13:14.654Z,95574.09
2022-10-23T05:18:24.077Z,95577.56
2022-10-23T05:20:57.681Z,95579.31
2022-10-23T05:23:26.319Z,95577.03
2022-10-23T05:26:03.529Z,95576.53
2022-10-23T05:28:32.599Z,95580.69
2022-10-23T05:31:05.079Z,95585.88
2022-10-23T05:33:35.907Z,95580.31
2022-10-23T05:36:04.720Z,95573.31
2022-10-23T05:38:35.944Z,95579.69
2022-10-23T05:41:11.865Z,95578.06
2022-10-23T05:43:39.550Z,95582.44
2022-10-23T05:46:29.151Z,95591.06
2022-10-23T05:49:12.480Z,95585.97
2022-10-23T05:51:52.134Z,95578.69
2022-10-23T05:54:24.720Z,95580.41
2022-10-23T05:57:22.005Z,95573.97
2022-10-23T05:59:51.765Z,95565.88
2022-10-23T06:02:25.902Z,95566.78
2022-10-23T06:04:59.869Z,95564.94
2022-10-23T06:07:50.725Z,95561.97
2022-10-23T06:10:19.741Z,95559.34
2022-10-23T06:12:51.003Z,95565.69
2022-10-23T06:15:19.757Z,95562.53
2022-10-23T06:18:11.775Z,95569.16
2022-10-23T06:20:50.405Z,95567.59
2022-10-23T06:23:25.219Z,95582.22
2022-10-23T06:26:10.941Z,95591.91
2022-10-23T06:28:50.222Z,95597.16
2022-10-23T06:31:20.376Z,95595.63
2022-10-23T06:33:52.507Z,95598.44
2022-10-23T06:36:20.508Z,95599.41
2022-10-23T06:38:49.540Z,95594.22
2022-10-23T06:41:19.880Z,95593.72
2022-10-23T06:43:53.309Z,95586.38
2022-10-23T06:46:30.131Z,95581.88
2022-10-23T06:49:05.235Z,95587.53
2022-10-23T06:51:39.281Z,95589.28
2022-10-23T06:54:12.571Z,95585.34
2022-10-23T06:56:49.225Z,95587.91
2022-10-23T06:59:20.683Z,95591.72
2022-10-23T07:01:51.964Z,95594.06
2022-10-23T07:04:21.002Z,95594.75
2022-10-23T07:06:49.561Z,95593.16
2022-10-23T07:09:21.726Z,95593.00
2022-10-23T07:11:52.392Z,95588.81
2022-10-23T07:14:24.087Z,95599.06
2022-10-23T07:16:51.756Z,95594.22
2022-10-23T07:19:21.941Z,95597.28
2022-10-23T07:21:55.562Z,95591.41
2022-10-23T07:24:37.097Z,95584.97
2022-10-23T07:27:09.762Z,95590.88
2022-10-23T07:29:37.455Z,95578.19
2022-10-23T07:32:06.466Z,95573.03
2022-10-23T07:34:54.185Z,95580.53
2022-10-23T07:37:30.265Z,95571.28
2022-10-23T07:40:00.183Z,95570.28
2022-10-23T07:42:28.594Z,95574.84
2022-10-23T07:44:56.269Z,95578.94
2022-10-23T07:47:24.797Z,95575.63
2022-10-23T07:49:54.818Z,95571.06
2022-10-23T07:52:22.791Z,95575.78
2022-10-23T07:55:09.825Z,95577.78
2022-10-23T07:57:41.397Z,95582.16
2022-10-23T08:03:06.472Z,95579.59
2022-10-23T08:05:35.838Z,95571.91
2022-10-23T08:08:05.513Z,95572.84
2022-10-23T08:10:33.750Z,95576.53
2022-10-23T08:13:02.162Z,95582.13
2022-10-23T08:15:53.084Z,95573.44
2022-10-23T08:18:40.922Z,95565.94
2022-10-23T08:21:11.534Z,95570.22
2022-10-23T08:23:39.689Z,95572.81
2022-10-23T08:26:09.357Z,95559.06
2022-10-23T08:28:37.332Z,95565.00
2022-10-23T08:31:10.493Z,95553.81
2022-10-23T08:33:39.696Z,95539.41
2022-10-23T08:36:18.578Z,95551.91
2022-10-23T08:38:46.405Z,95548.22
2022-10-23T08:41:26.653Z,95532.00
2022-10-23T08:44:13.102Z,95528.13
2022-10-23T08:46:48.304Z,95515.88
2022-10-23T08:49:45.471Z,95509.25
2022-10-23T08:52:20.921Z,95511.25
2022-10-23T08:55:02.896Z,95519.00
2022-10-23T08:57:40.056Z,95505.75
2022-10-23T09:00:15.066Z,95512.69
2022-10-23T09:02:46.378Z,95519.38
2022-10-23T09:05:18.481Z,95518.50
2022-10-23T09:08:02.394Z,95517.50
2022-10-23T09:10:38.689Z,95517.56
2022-10-23T09:13:41.366Z,95517.13
2022-10-23T09:16:18.575Z,95513.34
2022-10-23T09:18:48.232Z,95513.09
2022-10-23T09:21:16.765Z,95509.53
2022-10-23T09:23:45.756Z,95512.72
2022-10-23T09:26:16.857Z,95519.22
2022-10-23T09:28:48.581Z,95525.09
2022-10-23T09:31:17.431Z,95511.69
2022-10-23T09:33:55.386Z,95500.91
2022-10-23T09:36:24.796Z,95491.31
2022-10-23T09:38:55.294Z,95498.38
2022-10-23T09:41:28.535Z,95495.88
2022-10-23T09:44:03.877Z,95487.47
2022-10-23T09:46:39.261Z,95480.22
2022-10-23T09:49:08.057Z,95483.47
2022-10-23T09:51:36.426Z,95471.44
2022-10-23T09:54:05.865Z,95487.75
2022-10-23T09:56:36.734Z,95493.53
2022-10-23T09:59:07.011Z,95494.00
2022-10-23T10:01:37.529Z,95482.00
2022-10-23T10:04:39.011Z,95485.03
2022-10-23T10:07:20.422Z,95483.13
2022-10-23T10:09:49.823Z,95490.59
2022-10-23T10:12:41.821Z,95479.78
2022-10-23T10:15:21.305Z,95468.47
2022-10-23T10:17:58.026Z,95467.34
2022-10-23T10:20:40.289Z,95471.25
2022-10-23T10:23:15.054Z,95464.06
2022-10-23T10:25:52.981Z,95467.09
2022-10-23T10:28:51.198Z,95467.94
2022-10-23T10:31:25.829Z,95464.09
2022-10-23T10:34:06.320Z,95449.22
2022-10-23T10:36:47.394Z,95444.25
2022-10-23T10:39:26.682Z,95439.28
2022-10-23T10:42:11.208Z,95435.75
2022-10-23T10:44:51.650Z,95435.25
2022-10-23T10:47:25.967Z,95449.03
2022-10-23T10:50:03.918Z,95439.06
2022-10-23T10:52:49.894Z,95435.88
2022-10-23T10:55:24.514Z,95426.66
2022-10-23T10:57:59.938Z,95430.22
2022-10-23T11:00:31.298Z,95423.09
2022-10-23T11:03:03.645Z,95422.00
2022-10-23T11:05:34.088Z,95407.41
2022-10-23T11:08:06.935Z,95419.25
2022-10-23T11:10:37.378Z,95409.41
2022-10-23T11:13:06.390Z,95414.63
2022-10-23T11:15:40.172Z,95413.94
2022-10-23T11:18:16.677Z,95407.91
2022-10-23T11:21:00.199Z,95395.16
2022-10-23T11:23:56.407Z,95395.25
2022-10-23T11:26:40.763Z,95380.84
2022-10-23T11:29:30.463Z,95391.91
2022-10-23T11:32:15.493Z,95385.69
2022-10-23T11:35:14.141Z,95386.75
2022-10-23T11:37:42.700Z,95390.66
2022-10-23T11:40:23.921Z,95393.38
2022-10-23T11:42:52.504Z,95378.28
2022-10-23T11:45:31.255Z,95372.19
2022-10-23T11:48:01.167Z,95372.28
2022-10-23T11:50:33.037Z,95364.00
2022-10-23T11:53:14.645Z,95367.91
2022-10-23T11:55:59.321Z,95361.56
2022-10-23T11:58:31.993Z,95362.94
2022-10-23T12:01:05.723Z,95362.63
2022-10-23T12:03:50.292Z,95354.31
2022-10-23T12:06:25.607Z,95361.72
2022-10-23T12:08:57.368Z,95358.03
2022-10-23T12:11:40.330Z,95353.66
2022-10-23T12:14:27.251Z,95361.59
2022-10-23T12:16:57.009Z,95358.25
2022-10-23T12:19:28.057Z,95340.03
2022-10-23T12:21:59.784Z,95331.19
2022-10-23T12:24:52.093Z,95338.66
2022-10-23T12:27:31.763Z,95339.09
2022-10-23T12:30:22.282Z,95342.66
2022-10-23T12:33:05.560Z,95336.38
2022-10-23T12:36:05.226Z,95334.22
2022-10-23T12:38:35.487Z,95330.56
2022-10-23T12:41:14.661Z,95332.34
2022-10-23T12:43:51.421Z,95321.66
2022-10-23T12:46:35.179Z,95323.44
2022-10-23T12:49:15.463Z,95322.88
2022-10-23T12:51:43.811Z,95317.16
2022-10-23T12:54:16.770Z,95310.00
2022-10-23T12:56:46.045Z,95308.28
2022-10-23T12:59:17.663Z,95306.19
2022-10-23T13:01:49.150Z,95310.41
2022-10-23T13:04:27.793Z,95298.78
2022-10-23T13:06:58.233Z,95301.88
2022-10-23T13:09:31.101Z,95300.47
2022-10-23T13:12:25.894Z,95294.25
2022-10-23T13:15:00.952Z,95292.50
2022-10-23T13:17:37.750Z,95294.19
2022-10-23T13:20:21.964Z,95282.16
2022-10-23T13:23:01.044Z,95284.13
2022-10-23T13:25:31.443Z,95283.91
2022-10-23T13:28:22.189Z,95283.81
2022-10-23T13:31:01.920Z,95289.59
2022-10-23T13:33:35.103Z,95275.91
2022-10-23T13:36:07.947Z,95284.88
2022-10-23T13:38:37.169Z,95283.41
2022-10-23T13:41:12.786Z,95273.09
2022-10-23T13:43:40.767Z,95275.31
2022-10-23T13:46:15.256Z,95281.59
2022-10-23T13:48:43.221Z,95280.41
2022-10-23T13:51:14.580Z,95273.94
2022-10-23T13:53:42.489Z,95279.69
2022-10-23T13:56:12.917Z,95278.97
2022-10-23T13:58:41.235Z,95282.59
2022-10-23T14:01:17.443Z,95281.94
2022-10-23T14:03:45.170Z,95277.75
2022-10-23T14:06:14.670Z,95276.78
2022-10-23T14:08:42.581Z,95280.63
2022-10-23T14:11:11.723Z,95267.19
2022-10-23T14:13:39.446Z,95273.72
2022-10-23T14:16:08.465Z,95270.47
2022-10-23T14:18:36.412Z,95267.50
2022-10-23T14:21:06.031Z,95267.78
2022-10-23T14:23:35.034Z,95263.47
2022-10-23T14:26:03.965Z,95277.81
2022-10-23T14:28:31.739Z,95272.16
2022-10-23T14:31:04.530Z,95278.13
2022-10-23T14:33:32.247Z,95277.59
2022-10-23T14:36:00.682Z,95274.44
2022-10-23T14:38:28.662Z,95277.72
2022-10-23T14:40:58.293Z,95281.50
2022-10-23T14:43:26.390Z,95293.97
2022-10-23T14:45:54.823Z,95288.38
2022-10-23T14:48:22.462Z,95281.66
2022-10-23T14:50:51.169Z,95284.91
2022-10-23T14:53:18.785Z,95279.53
2022-10-23T14:55:47.087Z,95270.94
2022-10-23T14:58:16.050Z,95278.25
2022-10-23T15:00:44.265Z,95273.16
2022-10-23T15:03:11.881Z,95267.22
2022-10-23T15:05:42.793Z,95263.47
2022-10-23T15:08:10.840Z,95261.31
2022-10-23T15:10:39.429Z,95255.13
2022-10-23T15:13:07.576Z,95252.47
2022-10-23T15:15:36.559Z,95248.44
2022-10-23T15:18:04.351Z,95248.97
2022-10-23T15:20:32.666Z,95244.69
2022-10-23T15:23:01.337Z,95241.47
2022-10-23T15:25:29.321Z,95243.09
2022-10-23T15:27:57.127Z,95236.63
2022-10-23T15:30:25.571Z,95242.53
2022-10-23T15:32:54.602Z,95251.94
2022-10-23T15:35:22.619Z,95253.28
2022-10-23T15:37:50.286Z,95234.19
2022-10-23T15:40:18.483Z,95230.41
2022-10-23T15:42:47.549Z,95235.50
2022-10-23T15:45:15.401Z,95245.66
2022-10-23T15:47:43.935Z,95245.38
2022-10-23T15:50:13.159Z,95239.69
2022-10-23T15:52:41.235Z,95240.47
2022-10-23T15:55:11.558Z,95246.59
2022-10-23T15:57:39.998Z,95248.97
2022-10-23T16:00:10.358Z,95240.09
2022-10-23T16:02:38.557Z,95244.56
2022-10-23T16:05:06.954Z,95242.66
2022-10-23T16:07:36.655Z,95241.53
2022-10-23T16:10:05.438Z,95218.94
2022-10-23T16:12:33.711Z,95213.06
2022-10-23T16:15:01.336Z,95217.28
2022-10-23T16:17:29.710Z,95221.25
2022-10-23T16:19:57.357Z,95217.97
2022-10-23T16:22:25.613Z,95224.88
2022-10-23T16:24:54.674Z,95220.25
2022-10-23T16:27:22.651Z,95212.25
2022-10-23T16:29:50.278Z,95223.44
2022-10-23T16:32:18.575Z,95209.97
2022-10-23T16:34:46.406Z,95209.34
2022-10-23T16:37:14.799Z,95203.88
2022-10-23T16:39:49.741Z,95211.66
2022-10-23T16:42:37.858Z,95224.19
2022-10-23T16:45:21.613Z,95216.72
2022-10-23T16:47:49.254Z,95237.84
2022-10-23T16:50:17.566Z,95237.47
2022-10-23T16:52:45.549Z,95255.22
2022-10-23T16:55:13.502Z,95265.53
2022-10-23T16:57:43.081Z,95254.56
2022-10-23T17:00:11.546Z,95263.00
2022-10-23T17:02:39.286Z,95286.91
2022-10-23T17:05:08.301Z,95286.41
2022-10-23T17:07:37.109Z,95293.88
2022-10-23T17:10:06.054Z,95307.69
2022-10-23T17:12:33.779Z,95323.25
2022-10-23T17:15:03.408Z,95332.72
2022-10-23T17:17:31.052Z,95327.97
2022-10-23T17:19:59.529Z,95324.06
2022-10-23T17:22:27.756Z,95321.81
2022-10-23T17:24:55.371Z,95313.47
2022-10-23T17:27:23.728Z,95334.69
2022-10-23T17:29:51.399Z,95330.78
2022-10-23T17:34:48.986Z,95336.81
2022-10-23T17:37:17.196Z,95315.69
2022-10-23T17:39:44.882Z,95308.81
2022-10-23T17:42:12.541Z,95306.72
2022-10-23T17:44:40.169Z,95318.56
2022-10-23T17:47:08.078Z,95308.72
2022-10-23T17:49:38.056Z,95309.34
2022-10-23T17:52:06.519Z,95302.13
2022-10-23T17:54:34.161Z,95300.66
2022-10-23T17:57:01.802Z,95297.44
2022-10-23T17:59:29.482Z,95300.25
2022-10-23T18:01:59.498Z,95300.59
2022-10-23T18:04:27.294Z,95278.41
2022-10-23T18:06:56.297Z,95297.53
2022-10-23T18:09:24.270Z,95278.88
2022-10-23T18:11:52.755Z,95278.88
2022-10-23T18:14:22.200Z,95285.22
2022-10-23T18:16:50.828Z,95289.75
2022-10-23T18:19:19.423Z,95282.44
2022-10-23T18:21:48.435Z,95287.78
2022-10-23T18:24:18.790Z,95269.47
2022-10-23T18:26:48.046Z,95265.91
2022-10-23T18:29:17.375Z,95267.38
2022-10-23T18:31:47.959Z,95265.69
2022-10-23T18:34:17.981Z,95267.19
2022-10-23T18:36:46.500Z,95269.47
2022-10-23T18:39:16.122Z,95274.25
2022-10-23T18:41:46.363Z,95279.09
2022-10-23T18:44:16.422Z,95280.88
2022-10-23T18:46:44.582Z,95278.38
2022-10-23T18:49:12.878Z,95288.88
2022-10-23T18:51:40.818Z,95295.22
2022-10-23T18:54:11.683Z,95289.63
2022-10-23T18:56:39.997Z,95284.66
2022-10-23T18:59:12.143Z,95275.78
2022-10-23T19:01:40.297Z,95278.91
2022-10-23T19:04:08.706Z,95282.41
2022-10-23T19:06:37.914Z,95289.69
2022-10-23T19:09:07.949Z,95287.91
2022-10-23T19:11:36.907Z,95286.28
2022-10-23T19:14:04.648Z,95280.59
2022-10-23T19:16:38.421Z,95285.31
2022-10-23T19:19:12.088Z,95283.44
2022-10-23T19:21:41.317Z,95288.44
2022-10-23T19:24:12.013Z,95285.25
2022-10-23T19:26:41.049Z,95279.91
2022-10-23T19:29:10.855Z,95287.31
2022-10-23T19:31:43.102Z,95278.50
2022-10-23T19:34:10.741Z,95290.00
2022-10-23T19:36:38.470Z,95282.53
2022-10-23T19:39:06.098Z,95276.31
2022-10-23T19:41:33.805Z,95272.75
2022-10-23T19:44:01.486Z,95287.00
2022-10-23T19:46:29.138Z,95298.31
2022-10-23T19:48:58.143Z,95311.38
2022-10-23T19:51:25.837Z,95295.88
2022-10-23T19:53:55.182Z,95306.19
2022-10-23T19:56:23.169Z,95309.91
2022-10-23T19:58:51.446Z,95322.63
2022-10-23T20:01:21.833Z,95336.25
2022-10-23T20:03:49.708Z,95328.47
2022-10-23T20:06:20.959Z,95332.16
2022-10-23T20:08:48.989Z,95339.22
2022-10-23T20:11:20.375Z,95352.28
2022-10-23T20:13:48.847Z,95359.03
2022-10-23T20:16:24.211Z,95360.16
2022-10-23T20:18:52.545Z,95368.22
2022-10-23T20:21:22.263Z,95390.38
2022-10-23T20:23:50.123Z,95396.09
2022-10-23T20:26:21.235Z,95410.38
2022-10-23T20:28:51.272Z,95420.19
2022-10-23T20:31:20.636Z,95426.22
2022-10-23T20:33:48.311Z,95433.75
2022-10-23T20:36:25.756Z,95433.34
2022-10-23T20:38:53.521Z,95437.41
2022-10-23T20:41:22.322Z,95443.94
2022-10-23T20:43:49.973Z,95443.81
2022-10-23T20:46:17.780Z,95427.13
2022-10-23T20:48:45.884Z,95438.72
2022-10-23T20:51:16.496Z,95429.66
2022-10-23T20:53:46.235Z,95439.50
2022-10-23T20:56:18.339Z,95436.97
2022-10-23T20:58:46.166Z,95436.03
2022-10-23T21:01:17.669Z,95437.66
2022-10-23T21:03:50.056Z,95433.81
2022-10-23T21:06:19.284Z,95427.81
2022-10-23T21:08:49.084Z,95428.53
2022-10-23T21:11:19.000Z,95434.69
2022-10-23T21:13:46.754Z,95440.16
2022-10-23T21:16:17.069Z,95444.19
2022-10-23T21:18:46.900Z,95453.75
2022-10-23T21:21:17.289Z,95455.00
2022-10-23T21:23:45.126Z,95452.59
2022-10-23T21:26:15.804Z,95461.88
2022-10-23T21:28:55.678Z,95467.44
2022-10-23T21:31:33.955Z,95472.41
2022-10-23T21:34:01.784Z,95470.88
2022-10-23T21:36:31.087Z,95483.66
2022-10-23T21:39:01.963Z,95496.94
2022-10-23T21:41:34.209Z,95497.38
2022-10-23T21:44:03.393Z,95498.78
2022-10-23T21:46:33.708Z,95508.44
2022-10-23T21:49:01.897Z,95524.72
2022-10-23T21:51:35.556Z,95533.28
2022-10-23T21:54:03.563Z,95535.94
2022-10-23T21:56:36.742Z,95533.47
2022-10-23T22:01:40.113Z,95534.66
2022-10-23T22:04:08.057Z,95531.06
2022-10-23T22:06:36.247Z,95532.72
2022-10-23T22:09:05.587Z,95548.25
2022-10-23T22:11:35.391Z,95552.34
2022-10-23T22:14:03.053Z,95560.69
2022-10-23T22:16:31.201Z,95565.09
2022-10-23T22:18:59.195Z,95584.84
2022-10-23T22:21:29.112Z,95581.22
2022-10-23T22:23:59.160Z,95568.09
2022-10-23T22:26:29.714Z,95566.75
2022-10-23T22:29:01.360Z,95561.97
2022-10-23T22:31:33.318Z,95577.94
2022-10-23T22:34:13.132Z,95576.91
2022-10-23T22:36:50.837Z,95572.53
2022-10-23T22:39:18.974Z,95580.78
2022-10-23T22:41:47.815Z,95579.88
2022-10-23T22:44:17.063Z,95590.16
2022-10-23T22:46:45.536Z,95595.97
2022-10-23T22:49:13.305Z,95593.16
2022-10-23T22:51:41.645Z,95583.53
2022-10-23T22:54:09.670Z,95590.28
2022-10-23T22:56:37.775Z,95583.00
2022-10-23T22:59:05.908Z,95582.63
2022-10-23T23:01:37.890Z,95582.56
2022-10-23T23:04:19.777Z,95582.00
2022-10-23T23:06:54.002Z,95583.78
2022-10-23T23:09:21.636Z,95589.94
2022-10-23T23:11:52.888Z,95582.97
2022-10-23T23:14:23.695Z,95579.13
2022-10-23T23:16:54.229Z,95566.03
2022-10-23T23:19:24.118Z,95577.31
2022-10-23T23:21:52.505Z,95580.75
2022-10-23T23:24:20.144Z,95575.56
2022-10-23T23:26:48.102Z,95582.97
2022-10-23T23:29:15.750Z,95578.22
2022-10-23T23:31:44.234Z,95568.75
2022-10-23T23:34:13.206Z,95573.00
2022-10-23T23:36:41.793Z,95576.47
2022-10-23T23:39:09.470Z,95571.47
2022-10-23T23:41:37.503Z,95573.19
2022-10-23T23:44:05.362Z,95569.16
2022-10-23T23:46:33.540Z,95551.25
2022-10-23T23:49:01.195Z,95543.97
2022-10-23T23:51:30.830Z,95536.84
2022-10-23T23:53:58.497Z,95531.97
2022-10-23T23:56:26.606Z,95535.47
2022-10-23T23:58:54.266Z,95560.59
